sensor_id;sensor_type;location;lat;lon;timestamp;P1;durP1;ratioP1;P2;durP2;ratioP2
19280;SDS011;9774;52.034;5.342;2023-09-18T00:02:26;7.95;;;6.15;;
19280;SDS011;9774;52.034;5.342;2023-09-18T00:04:56;11.45;;;5.85;;
19280;SDS011;9774;52.034;5.342;2023-09-18T00:07:23;8.10;;;5.95;;
19280;SDS011;9774;52.034;5.342;2023-09-18T00:09:50;6.57;;;5.97;;
19280;SDS011;9774;52.034;5.342;2023-09-18T00:12:17;6.82;;;5.80;;
19280;SDS011;9774;52.034;5.342;2023-09-18T00:14:48;6.00;;;5.40;;
19280;SDS011;9774;52.034;5.342;2023-09-18T00:17:16;7.45;;;6.70;;
19280;SDS011;9774;52.034;5.342;2023-09-18T00:19:44;6.45;;;5.80;;
19280;SDS011;9774;52.034;5.342;2023-09-18T00:22:11;9.30;;;6.57;;
19280;SDS011;9774;52.034;5.342;2023-09-18T00:24:38;6.25;;;5.45;;
19280;SDS011;9774;52.034;5.342;2023-09-18T00:27:05;7.43;;;6.60;;
19280;SDS011;9774;52.034;5.342;2023-09-18T00:29:32;9.23;;;6.72;;
19280;SDS011;9774;52.034;5.342;2023-09-18T00:32:00;6.32;;;5.72;;
19280;SDS011;9774;52.034;5.342;2023-09-18T00:34:28;5.47;;;4.97;;
19280;SDS011;9774;52.034;5.342;2023-09-18T00:36:56;7.65;;;6.20;;
19280;SDS011;9774;52.034;5.342;2023-09-18T00:39:25;14.38;;;6.72;;
19280;SDS011;9774;52.034;5.342;2023-09-18T00:41:52;6.68;;;6.07;;
19280;SDS011;9774;52.034;5.342;2023-09-18T00:44:19;5.88;;;5.05;;
19280;SDS011;9774;52.034;5.342;2023-09-18T00:46:47;7.28;;;6.07;;
19280;SDS011;9774;52.034;5.342;2023-09-18T00:49:16;6.07;;;5.18;;
19280;SDS011;9774;52.034;5.342;2023-09-18T00:51:45;6.20;;;4.63;;
19280;SDS011;9774;52.034;5.342;2023-09-18T00:54:13;6.32;;;5.57;;
19280;SDS011;9774;52.034;5.342;2023-09-18T00:56:44;7.93;;;5.57;;
19280;SDS011;9774;52.034;5.342;2023-09-18T00:59:13;6.75;;;5.50;;
19280;SDS011;9774;52.034;5.342;2023-09-18T01:01:40;6.40;;;5.63;;
19280;SDS011;9774;52.034;5.342;2023-09-18T01:04:09;6.25;;;5.53;;
19280;SDS011;9774;52.034;5.342;2023-09-18T01:06:39;8.25;;;5.35;;
19280;SDS011;9774;52.034;5.342;2023-09-18T01:09:06;6.60;;;5.93;;
19280;SDS011;9774;52.034;5.342;2023-09-18T01:11:40;8.95;;;5.38;;
19280;SDS011;9774;52.034;5.342;2023-09-18T01:14:19;5.25;;;4.75;;
19280;SDS011;9774;52.034;5.342;2023-09-18T01:16:53;5.43;;;4.90;;
19280;SDS011;9774;52.034;5.342;2023-09-18T01:19:36;7.80;;;5.90;;
19280;SDS011;9774;52.034;5.342;2023-09-18T01:22:06;7.65;;;5.20;;
19280;SDS011;9774;52.034;5.342;2023-09-18T01:24:36;8.25;;;6.53;;
19280;SDS011;9774;52.034;5.342;2023-09-18T01:27:06;7.90;;;5.38;;
19280;SDS011;9774;52.034;5.342;2023-09-18T01:29:35;5.88;;;5.07;;
19280;SDS011;9774;52.034;5.342;2023-09-18T01:32:03;7.18;;;5.22;;
19280;SDS011;9774;52.034;5.342;2023-09-18T01:34:31;6.82;;;4.78;;
19280;SDS011;9774;52.034;5.342;2023-09-18T01:37:04;7.07;;;5.18;;
19280;SDS011;9774;52.034;5.342;2023-09-18T01:39:33;6.13;;;5.53;;
19280;SDS011;9774;52.034;5.342;2023-09-18T01:42:04;8.85;;;5.28;;
19280;SDS011;9774;52.034;5.342;2023-09-18T01:44:34;6.60;;;5.10;;
19280;SDS011;9774;52.034;5.342;2023-09-18T01:47:03;6.10;;;5.53;;
19280;SDS011;9774;52.034;5.342;2023-09-18T01:49:33;5.32;;;4.82;;
19280;SDS011;9774;52.034;5.342;2023-09-18T01:52:03;6.78;;;5.80;;
19280;SDS011;9774;52.034;5.342;2023-09-18T01:54:31;6.65;;;5.40;;
19280;SDS011;9774;52.034;5.342;2023-09-18T01:57:01;7.30;;;5.40;;
19280;SDS011;9774;52.034;5.342;2023-09-18T01:59:29;7.47;;;5.22;;
19280;SDS011;9774;52.034;5.342;2023-09-18T02:01:57;7.60;;;6.15;;
19280;SDS011;9774;52.034;5.342;2023-09-18T02:04:23;7.85;;;6.38;;
19280;SDS011;9774;52.034;5.342;2023-09-18T02:06:52;7.38;;;6.57;;
19280;SDS011;9774;52.034;5.342;2023-09-18T02:09:19;6.93;;;6.25;;
19280;SDS011;9774;52.034;5.342;2023-09-18T02:11:46;7.60;;;6.40;;
19280;SDS011;9774;52.034;5.342;2023-09-18T02:14:15;7.72;;;6.93;;
19280;SDS011;9774;52.034;5.342;2023-09-18T02:16:42;9.55;;;7.00;;
19280;SDS011;9774;52.034;5.342;2023-09-18T02:19:10;7.68;;;6.85;;
19280;SDS011;9774;52.034;5.342;2023-09-18T02:21:39;8.75;;;7.68;;
19280;SDS011;9774;52.034;5.342;2023-09-18T02:24:06;8.00;;;7.07;;
19280;SDS011;9774;52.034;5.342;2023-09-18T02:26:34;8.18;;;6.40;;
19280;SDS011;9774;52.034;5.342;2023-09-18T02:29:04;6.97;;;6.28;;
19280;SDS011;9774;52.034;5.342;2023-09-18T02:31:36;10.10;;;7.05;;
19280;SDS011;9774;52.034;5.342;2023-09-18T02:34:03;7.38;;;6.57;;
19280;SDS011;9774;52.034;5.342;2023-09-18T02:36:30;7.40;;;6.60;;
19280;SDS011;9774;52.034;5.342;2023-09-18T02:38:57;10.15;;;7.38;;
19280;SDS011;9774;52.034;5.342;2023-09-18T02:41:25;7.85;;;7.05;;
19280;SDS011;9774;52.034;5.342;2023-09-18T02:43:52;8.20;;;6.80;;
19280;SDS011;9774;52.034;5.342;2023-09-18T02:46:19;7.85;;;7.05;;
19280;SDS011;9774;52.034;5.342;2023-09-18T02:48:48;6.97;;;6.18;;
19280;SDS011;9774;52.034;5.342;2023-09-18T02:51:15;7.65;;;6.40;;
19280;SDS011;9774;52.034;5.342;2023-09-18T02:53:42;6.88;;;5.65;;
19280;SDS011;9774;52.034;5.342;2023-09-18T02:56:08;8.52;;;6.57;;
19280;SDS011;9774;52.034;5.342;2023-09-18T02:58:35;7.10;;;6.43;;
19280;SDS011;9774;52.034;5.342;2023-09-18T03:01:02;7.15;;;6.45;;
19280;SDS011;9774;52.034;5.342;2023-09-18T03:03:30;8.10;;;6.78;;
19280;SDS011;9774;52.034;5.342;2023-09-18T03:06:02;8.02;;;6.57;;
19280;SDS011;9774;52.034;5.342;2023-09-18T03:08:31;7.38;;;6.63;;
19280;SDS011;9774;52.034;5.342;2023-09-18T03:10:58;7.45;;;6.68;;
19280;SDS011;9774;52.034;5.342;2023-09-18T03:13:26;9.48;;;7.60;;
19280;SDS011;9774;52.034;5.342;2023-09-18T03:15:54;8.55;;;7.35;;
19280;SDS011;9774;52.034;5.342;2023-09-18T03:18:22;9.10;;;7.95;;
19280;SDS011;9774;52.034;5.342;2023-09-18T03:20:48;8.48;;;7.10;;
19280;SDS011;9774;52.034;5.342;2023-09-18T03:23:17;7.72;;;6.75;;
19280;SDS011;9774;52.034;5.342;2023-09-18T03:25:44;6.95;;;6.25;;
19280;SDS011;9774;52.034;5.342;2023-09-18T03:28:11;9.50;;;7.13;;
19280;SDS011;9774;52.034;5.342;2023-09-18T03:30:38;8.18;;;7.38;;
19280;SDS011;9774;52.034;5.342;2023-09-18T03:33:04;8.60;;;7.68;;
19280;SDS011;9774;52.034;5.342;2023-09-18T03:35:31;8.27;;;7.25;;
19280;SDS011;9774;52.034;5.342;2023-09-18T03:37:58;8.77;;;7.60;;
19280;SDS011;9774;52.034;5.342;2023-09-18T03:40:27;9.20;;;6.93;;
19280;SDS011;9774;52.034;5.342;2023-09-18T03:42:54;9.73;;;7.43;;
19280;SDS011;9774;52.034;5.342;2023-09-18T03:45:21;10.63;;;7.03;;
19280;SDS011;9774;52.034;5.342;2023-09-18T03:47:48;7.68;;;6.88;;
19280;SDS011;9774;52.034;5.342;2023-09-18T03:50:16;7.78;;;6.95;;
19280;SDS011;9774;52.034;5.342;2023-09-18T03:52:43;8.98;;;7.53;;
19280;SDS011;9774;52.034;5.342;2023-09-18T03:55:10;8.60;;;7.35;;
19280;SDS011;9774;52.034;5.342;2023-09-18T03:57:39;12.70;;;8.43;;
19280;SDS011;9774;52.034;5.342;2023-09-18T04:00:08;9.27;;;7.38;;
19280;SDS011;9774;52.034;5.342;2023-09-18T04:02:36;10.85;;;7.22;;
19280;SDS011;9774;52.034;5.342;2023-09-18T04:05:03;10.48;;;7.68;;
19280;SDS011;9774;52.034;5.342;2023-09-18T04:07:32;7.90;;;7.10;;
19280;SDS011;9774;52.034;5.342;2023-09-18T04:09:59;9.23;;;7.63;;
19280;SDS011;9774;52.034;5.342;2023-09-18T04:12:26;9.52;;;7.35;;
19280;SDS011;9774;52.034;5.342;2023-09-18T04:14:54;8.85;;;6.57;;
19280;SDS011;9774;52.034;5.342;2023-09-18T04:17:21;7.68;;;6.93;;
19280;SDS011;9774;52.034;5.342;2023-09-18T04:19:48;10.25;;;6.80;;
19280;SDS011;9774;52.034;5.342;2023-09-18T04:22:15;8.43;;;6.85;;
19280;SDS011;9774;52.034;5.342;2023-09-18T04:24:42;9.10;;;6.95;;
19280;SDS011;9774;52.034;5.342;2023-09-18T04:27:09;6.15;;;5.55;;
19280;SDS011;9774;52.034;5.342;2023-09-18T04:29:36;8.30;;;6.07;;
19280;SDS011;9774;52.034;5.342;2023-09-18T04:32:04;6.85;;;6.20;;
19280;SDS011;9774;52.034;5.342;2023-09-18T04:34:32;8.02;;;6.75;;
19280;SDS011;9774;52.034;5.342;2023-09-18T04:37:00;8.20;;;6.72;;
19280;SDS011;9774;52.034;5.342;2023-09-18T04:39:28;8.35;;;6.40;;
19280;SDS011;9774;52.034;5.342;2023-09-18T04:41:59;8.63;;;5.78;;
19280;SDS011;9774;52.034;5.342;2023-09-18T04:44:30;7.00;;;6.10;;
19280;SDS011;9774;52.034;5.342;2023-09-18T04:46:57;8.15;;;6.97;;
19280;SDS011;9774;52.034;5.342;2023-09-18T04:49:25;10.77;;;7.25;;
19280;SDS011;9774;52.034;5.342;2023-09-18T04:51:54;8.93;;;6.32;;
19280;SDS011;9774;52.034;5.342;2023-09-18T04:54:21;12.55;;;6.25;;
19280;SDS011;9774;52.034;5.342;2023-09-18T04:56:48;7.13;;;5.93;;
19280;SDS011;9774;52.034;5.342;2023-09-18T04:59:15;8.68;;;5.18;;
19280;SDS011;9774;52.034;5.342;2023-09-18T05:01:42;6.30;;;5.63;;
19280;SDS011;9774;52.034;5.342;2023-09-18T05:04:10;5.45;;;4.22;;
19280;SDS011;9774;52.034;5.342;2023-09-18T05:06:38;4.93;;;3.80;;
19280;SDS011;9774;52.034;5.342;2023-09-18T05:09:07;5.13;;;3.97;;
19280;SDS011;9774;52.034;5.342;2023-09-18T05:11:35;6.50;;;4.00;;
19280;SDS011;9774;52.034;5.342;2023-09-18T05:14:02;5.30;;;3.95;;
19280;SDS011;9774;52.034;5.342;2023-09-18T05:16:29;5.30;;;3.50;;
19280;SDS011;9774;52.034;5.342;2023-09-18T05:18:56;5.05;;;3.80;;
19280;SDS011;9774;52.034;5.342;2023-09-18T05:21:24;4.82;;;3.35;;
19280;SDS011;9774;52.034;5.342;2023-09-18T05:23:53;4.85;;;3.63;;
19280;SDS011;9774;52.034;5.342;2023-09-18T05:26:20;4.13;;;3.33;;
19280;SDS011;9774;52.034;5.342;2023-09-18T05:28:49;4.15;;;3.22;;
19280;SDS011;9774;52.034;5.342;2023-09-18T05:31:27;5.05;;;3.30;;
19280;SDS011;9774;52.034;5.342;2023-09-18T05:33:55;3.50;;;3.13;;
19280;SDS011;9774;52.034;5.342;2023-09-18T05:36:22;3.92;;;3.45;;
19280;SDS011;9774;52.034;5.342;2023-09-18T05:38:49;4.63;;;2.63;;
19280;SDS011;9774;52.034;5.342;2023-09-18T05:41:18;4.88;;;2.67;;
19280;SDS011;9774;52.034;5.342;2023-09-18T05:43:44;4.57;;;3.20;;
19280;SDS011;9774;52.034;5.342;2023-09-18T05:46:11;4.25;;;3.85;;
19280;SDS011;9774;52.034;5.342;2023-09-18T05:48:38;5.18;;;3.25;;
19280;SDS011;9774;52.034;5.342;2023-09-18T05:51:06;3.67;;;3.08;;
19280;SDS011;9774;52.034;5.342;2023-09-18T05:53:33;5.20;;;3.35;;
19280;SDS011;9774;52.034;5.342;2023-09-18T05:56:00;5.15;;;2.90;;
19280;SDS011;9774;52.034;5.342;2023-09-18T05:58:30;3.47;;;3.17;;
19280;SDS011;9774;52.034;5.342;2023-09-18T06:00:58;5.28;;;3.88;;
19280;SDS011;9774;52.034;5.342;2023-09-18T06:03:26;4.65;;;3.35;;
19280;SDS011;9774;52.034;5.342;2023-09-18T06:05:55;3.70;;;3.10;;
19280;SDS011;9774;52.034;5.342;2023-09-18T06:08:22;4.40;;;3.45;;
19280;SDS011;9774;52.034;5.342;2023-09-18T06:10:51;8.00;;;4.13;;
19280;SDS011;9774;52.034;5.342;2023-09-18T06:13:19;7.47;;;4.25;;
19280;SDS011;9774;52.034;5.342;2023-09-18T06:15:47;5.70;;;3.72;;
19280;SDS011;9774;52.034;5.342;2023-09-18T06:18:15;7.53;;;4.07;;
19280;SDS011;9774;52.034;5.342;2023-09-18T06:20:42;10.50;;;4.53;;
19280;SDS011;9774;52.034;5.342;2023-09-18T06:23:10;8.25;;;4.57;;
19280;SDS011;9774;52.034;5.342;2023-09-18T06:25:37;6.70;;;4.03;;
19280;SDS011;9774;52.034;5.342;2023-09-18T06:28:05;5.05;;;3.75;;
19280;SDS011;9774;52.034;5.342;2023-09-18T06:30:32;4.95;;;4.15;;
19280;SDS011;9774;52.034;5.342;2023-09-18T06:33:03;5.88;;;4.10;;
19280;SDS011;9774;52.034;5.342;2023-09-18T06:35:30;6.63;;;3.88;;
19280;SDS011;9774;52.034;5.342;2023-09-18T06:37:57;4.55;;;4.10;;
19280;SDS011;9774;52.034;5.342;2023-09-18T06:40:25;7.65;;;4.70;;
19280;SDS011;9774;52.034;5.342;2023-09-18T06:42:57;6.20;;;4.30;;
19280;SDS011;9774;52.034;5.342;2023-09-18T06:45:26;4.43;;;3.90;;
19280;SDS011;9774;52.034;5.342;2023-09-18T06:47:53;5.28;;;4.50;;
19280;SDS011;9774;52.034;5.342;2023-09-18T06:50:21;7.07;;;4.70;;
19280;SDS011;9774;52.034;5.342;2023-09-18T06:52:48;5.47;;;4.47;;
19280;SDS011;9774;52.034;5.342;2023-09-18T06:55:15;5.65;;;4.57;;
19280;SDS011;9774;52.034;5.342;2023-09-18T06:57:42;6.13;;;4.60;;
19280;SDS011;9774;52.034;5.342;2023-09-18T07:00:10;4.57;;;4.18;;
19280;SDS011;9774;52.034;5.342;2023-09-18T07:02:39;8.75;;;4.90;;
19280;SDS011;9774;52.034;5.342;2023-09-18T07:05:07;7.97;;;5.15;;
19280;SDS011;9774;52.034;5.342;2023-09-18T07:07:35;5.90;;;4.57;;
19280;SDS011;9774;52.034;5.342;2023-09-18T07:10:02;5.95;;;4.72;;
19280;SDS011;9774;52.034;5.342;2023-09-18T07:12:30;5.43;;;4.90;;
19280;SDS011;9774;52.034;5.342;2023-09-18T07:14:58;6.90;;;5.00;;
19280;SDS011;9774;52.034;5.342;2023-09-18T07:17:28;4.93;;;4.10;;
19280;SDS011;9774;52.034;5.342;2023-09-18T07:19:55;5.88;;;4.43;;
19280;SDS011;9774;52.034;5.342;2023-09-18T07:22:22;4.63;;;4.20;;
19280;SDS011;9774;52.034;5.342;2023-09-18T07:24:50;5.55;;;3.92;;
19280;SDS011;9774;52.034;5.342;2023-09-18T07:27:17;4.35;;;3.58;;
19280;SDS011;9774;52.034;5.342;2023-09-18T07:29:44;4.63;;;3.67;;
19280;SDS011;9774;52.034;5.342;2023-09-18T07:32:11;4.13;;;3.70;;
19280;SDS011;9774;52.034;5.342;2023-09-18T07:34:39;4.10;;;3.65;;
19280;SDS011;9774;52.034;5.342;2023-09-18T07:37:05;6.22;;;3.58;;
19280;SDS011;9774;52.034;5.342;2023-09-18T07:39:32;5.25;;;4.00;;
19280;SDS011;9774;52.034;5.342;2023-09-18T07:42:01;3.72;;;3.35;;
19280;SDS011;9774;52.034;5.342;2023-09-18T07:44:29;5.05;;;3.33;;
19280;SDS011;9774;52.034;5.342;2023-09-18T07:46:55;5.15;;;3.75;;
19280;SDS011;9774;52.034;5.342;2023-09-18T07:49:22;5.47;;;3.35;;
19280;SDS011;9774;52.034;5.342;2023-09-18T07:51:49;3.28;;;2.97;;
19280;SDS011;9774;52.034;5.342;2023-09-18T07:54:16;4.88;;;2.97;;
19280;SDS011;9774;52.034;5.342;2023-09-18T07:56:43;3.55;;;2.67;;
19280;SDS011;9774;52.034;5.342;2023-09-18T07:59:11;4.07;;;2.88;;
19280;SDS011;9774;52.034;5.342;2023-09-18T08:01:39;2.80;;;2.58;;
19280;SDS011;9774;52.034;5.342;2023-09-18T08:04:07;2.75;;;2.47;;
19280;SDS011;9774;52.034;5.342;2023-09-18T08:06:34;4.18;;;2.92;;
19280;SDS011;9774;52.034;5.342;2023-09-18T08:09:01;2.60;;;2.40;;
19280;SDS011;9774;52.034;5.342;2023-09-18T08:11:29;4.13;;;2.65;;
19280;SDS011;9774;52.034;5.342;2023-09-18T08:13:56;4.43;;;2.38;;
19280;SDS011;9774;52.034;5.342;2023-09-18T08:16:24;5.53;;;2.40;;
19280;SDS011;9774;52.034;5.342;2023-09-18T08:18:51;4.40;;;2.45;;
19280;SDS011;9774;52.034;5.342;2023-09-18T08:21:18;3.42;;;2.42;;
19280;SDS011;9774;52.034;5.342;2023-09-18T08:23:45;3.08;;;2.40;;
19280;SDS011;9774;52.034;5.342;2023-09-18T08:26:12;2.63;;;2.40;;
19280;SDS011;9774;52.034;5.342;2023-09-18T08:28:39;2.47;;;2.25;;
19280;SDS011;9774;52.034;5.342;2023-09-18T08:31:08;2.50;;;2.30;;
19280;SDS011;9774;52.034;5.342;2023-09-18T08:33:37;3.40;;;2.45;;
19280;SDS011;9774;52.034;5.342;2023-09-18T08:36:04;2.58;;;2.15;;
19280;SDS011;9774;52.034;5.342;2023-09-18T08:38:31;2.38;;;2.08;;
19280;SDS011;9774;52.034;5.342;2023-09-18T08:40:58;3.75;;;1.77;;
19280;SDS011;9774;52.034;5.342;2023-09-18T08:43:25;3.08;;;2.30;;
19280;SDS011;9774;52.034;5.342;2023-09-18T08:45:54;2.67;;;2.25;;
19280;SDS011;9774;52.034;5.342;2023-09-18T08:48:26;3.72;;;2.20;;
19280;SDS011;9774;52.034;5.342;2023-09-18T08:51:01;2.50;;;1.90;;
19280;SDS011;9774;52.034;5.342;2023-09-18T08:53:30;2.72;;;2.20;;
19280;SDS011;9774;52.034;5.342;2023-09-18T08:55:57;2.03;;;1.63;;
19280;SDS011;9774;52.034;5.342;2023-09-18T08:58:27;2.50;;;2.20;;
19280;SDS011;9774;52.034;5.342;2023-09-18T09:00:57;4.28;;;2.58;;
19280;SDS011;9774;52.034;5.342;2023-09-18T09:03:26;3.60;;;2.20;;
19280;SDS011;9774;52.034;5.342;2023-09-18T09:05:53;4.05;;;1.90;;
19280;SDS011;9774;52.034;5.342;2023-09-18T09:08:21;1.80;;;1.70;;
19280;SDS011;9774;52.034;5.342;2023-09-18T09:10:49;2.63;;;1.98;;
19280;SDS011;9774;52.034;5.342;2023-09-18T09:13:16;5.05;;;2.15;;
19280;SDS011;9774;52.034;5.342;2023-09-18T09:15:43;1.90;;;1.55;;
19280;SDS011;9774;52.034;5.342;2023-09-18T09:18:13;2.40;;;1.95;;
19280;SDS011;9774;52.034;5.342;2023-09-18T09:20:41;2.33;;;1.85;;
19280;SDS011;9774;52.034;5.342;2023-09-18T09:23:18;2.65;;;1.77;;
19280;SDS011;9774;52.034;5.342;2023-09-18T09:25:47;2.00;;;1.80;;
19280;SDS011;9774;52.034;5.342;2023-09-18T09:28:14;2.55;;;1.65;;
19280;SDS011;9774;52.034;5.342;2023-09-18T09:30:41;2.03;;;1.70;;
19280;SDS011;9774;52.034;5.342;2023-09-18T09:33:10;2.22;;;1.60;;
19280;SDS011;9774;52.034;5.342;2023-09-18T09:35:38;1.88;;;1.67;;
19280;SDS011;9774;52.034;5.342;2023-09-18T09:38:08;2.13;;;1.60;;
19280;SDS011;9774;52.034;5.342;2023-09-18T09:40:39;3.63;;;1.90;;
19280;SDS011;9774;52.034;5.342;2023-09-18T09:43:10;2.92;;;1.60;;
19280;SDS011;9774;52.034;5.342;2023-09-18T09:45:40;1.75;;;1.52;;
19280;SDS011;9774;52.034;5.342;2023-09-18T09:48:08;4.45;;;1.45;;
19280;SDS011;9774;52.034;5.342;2023-09-18T09:50:43;2.65;;;1.65;;
19280;SDS011;9774;52.034;5.342;2023-09-18T09:53:13;3.20;;;1.83;;
19280;SDS011;9774;52.034;5.342;2023-09-18T09:55:40;1.30;;;1.20;;
19280;SDS011;9774;52.034;5.342;2023-09-18T09:58:09;1.65;;;1.20;;
19280;SDS011;9774;52.034;5.342;2023-09-18T10:00:40;1.80;;;1.33;;
19280;SDS011;9774;52.034;5.342;2023-09-18T10:03:13;1.70;;;1.45;;
19280;SDS011;9774;52.034;5.342;2023-09-18T10:05:43;2.13;;;1.92;;
19280;SDS011;9774;52.034;5.342;2023-09-18T10:08:13;1.95;;;1.80;;
19280;SDS011;9774;52.034;5.342;2023-09-18T10:10:45;1.58;;;1.48;;
19280;SDS011;9774;52.034;5.342;2023-09-18T10:13:17;2.45;;;1.90;;
19280;SDS011;9774;52.034;5.342;2023-09-18T10:15:47;4.72;;;2.95;;
19280;SDS011;9774;52.034;5.342;2023-09-18T10:18:17;3.97;;;3.67;;
19280;SDS011;9774;52.034;5.342;2023-09-18T10:20:55;4.13;;;3.83;;
19280;SDS011;9774;52.034;5.342;2023-09-18T10:23:34;4.35;;;3.95;;
19280;SDS011;9774;52.034;5.342;2023-09-18T10:26:25;4.88;;;4.40;;
19280;SDS011;9774;52.034;5.342;2023-09-18T10:28:56;6.60;;;4.47;;
19280;SDS011;9774;52.034;5.342;2023-09-18T10:31:25;5.07;;;4.55;;
19280;SDS011;9774;52.034;5.342;2023-09-18T10:33:54;4.82;;;4.28;;
19280;SDS011;9774;52.034;5.342;2023-09-18T10:36:23;4.68;;;4.20;;
19280;SDS011;9774;52.034;5.342;2023-09-18T10:38:51;4.95;;;3.85;;
19280;SDS011;9774;52.034;5.342;2023-09-18T10:41:22;4.03;;;3.58;;
19280;SDS011;9774;52.034;5.342;2023-09-18T10:43:53;6.03;;;3.92;;
19280;SDS011;9774;52.034;5.342;2023-09-18T10:46:23;5.25;;;4.05;;
19280;SDS011;9774;52.034;5.342;2023-09-18T10:48:52;4.93;;;4.05;;
19280;SDS011;9774;52.034;5.342;2023-09-18T10:51:21;4.72;;;4.20;;
19280;SDS011;9774;52.034;5.342;2023-09-18T10:53:50;4.40;;;4.00;;
19280;SDS011;9774;52.034;5.342;2023-09-18T10:56:19;6.85;;;4.30;;
19280;SDS011;9774;52.034;5.342;2023-09-18T10:58:46;9.75;;;4.25;;
19280;SDS011;9774;52.034;5.342;2023-09-18T11:01:24;4.38;;;3.78;;
19280;SDS011;9774;52.034;5.342;2023-09-18T11:03:53;4.05;;;3.47;;
19280;SDS011;9774;52.034;5.342;2023-09-18T11:06:26;4.25;;;3.80;;
19280;SDS011;9774;52.034;5.342;2023-09-18T11:08:58;5.15;;;3.80;;
19280;SDS011;9774;52.034;5.342;2023-09-18T11:11:29;3.75;;;3.20;;
19280;SDS011;9774;52.034;5.342;2023-09-18T11:14:00;4.53;;;3.45;;
19280;SDS011;9774;52.034;5.342;2023-09-18T11:16:36;3.92;;;2.80;;
19280;SDS011;9774;52.034;5.342;2023-09-18T11:19:05;3.10;;;2.63;;
19280;SDS011;9774;52.034;5.342;2023-09-18T11:21:37;6.88;;;4.13;;
19280;SDS011;9774;52.034;5.342;2023-09-18T11:24:05;4.70;;;3.15;;
19280;SDS011;9774;52.034;5.342;2023-09-18T11:26:36;4.22;;;3.25;;
19280;SDS011;9774;52.034;5.342;2023-09-18T11:29:07;4.57;;;3.80;;
19280;SDS011;9774;52.034;5.342;2023-09-18T11:31:43;3.88;;;3.58;;
19280;SDS011;9774;52.034;5.342;2023-09-18T11:34:15;6.35;;;4.35;;
19280;SDS011;9774;52.034;5.342;2023-09-18T11:36:48;5.03;;;4.45;;
19280;SDS011;9774;52.034;5.342;2023-09-18T11:39:32;6.45;;;4.40;;
19280;SDS011;9774;52.034;5.342;2023-09-18T11:42:08;5.88;;;4.38;;
19280;SDS011;9774;52.034;5.342;2023-09-18T11:44:37;5.53;;;4.95;;
19280;SDS011;9774;52.034;5.342;2023-09-18T11:47:13;6.82;;;4.72;;
19280;SDS011;9774;52.034;5.342;2023-09-18T11:49:46;5.43;;;3.72;;
19280;SDS011;9774;52.034;5.342;2023-09-18T11:52:19;5.28;;;3.45;;
19280;SDS011;9774;52.034;5.342;2023-09-18T11:54:48;4.75;;;3.22;;
19280;SDS011;9774;52.034;5.342;2023-09-18T11:57:16;3.45;;;3.15;;
19280;SDS011;9774;52.034;5.342;2023-09-18T11:59:44;4.07;;;3.00;;
19280;SDS011;9774;52.034;5.342;2023-09-18T12:02:13;5.00;;;3.65;;
19280;SDS011;9774;52.034;5.342;2023-09-18T12:04:53;5.68;;;3.28;;
19280;SDS011;9774;52.034;5.342;2023-09-18T12:07:20;5.55;;;3.38;;
19280;SDS011;9774;52.034;5.342;2023-09-18T12:09:47;4.47;;;3.30;;
19280;SDS011;9774;52.034;5.342;2023-09-18T12:12:15;4.85;;;2.70;;
19280;SDS011;9774;52.034;5.342;2023-09-18T12:14:43;3.33;;;2.92;;
19280;SDS011;9774;52.034;5.342;2023-09-18T12:17:15;7.40;;;2.88;;
19280;SDS011;9774;52.034;5.342;2023-09-18T12:19:49;3.83;;;2.78;;
19280;SDS011;9774;52.034;5.342;2023-09-18T12:22:22;2.50;;;2.30;;
19280;SDS011;9774;52.034;5.342;2023-09-18T12:24:51;3.20;;;2.67;;
19280;SDS011;9774;52.034;5.342;2023-09-18T12:27:18;3.97;;;3.13;;
19280;SDS011;9774;52.034;5.342;2023-09-18T12:29:45;4.00;;;2.97;;
19280;SDS011;9774;52.034;5.342;2023-09-18T12:32:14;3.88;;;3.28;;
19280;SDS011;9774;52.034;5.342;2023-09-18T12:34:42;3.35;;;2.85;;
19280;SDS011;9774;52.034;5.342;2023-09-18T12:37:09;3.58;;;3.20;;
19280;SDS011;9774;52.034;5.342;2023-09-18T12:39:39;3.58;;;2.70;;
19280;SDS011;9774;52.034;5.342;2023-09-18T12:42:06;4.80;;;4.05;;
19280;SDS011;9774;52.034;5.342;2023-09-18T12:44:33;3.60;;;3.30;;
19280;SDS011;9774;52.034;5.342;2023-09-18T12:47:00;6.07;;;3.92;;
19280;SDS011;9774;52.034;5.342;2023-09-18T12:49:30;3.65;;;3.35;;
19280;SDS011;9774;52.034;5.342;2023-09-18T12:51:59;3.90;;;2.90;;
19280;SDS011;9774;52.034;5.342;2023-09-18T12:54:38;4.60;;;3.25;;
19280;SDS011;9774;52.034;5.342;2023-09-18T12:57:06;3.53;;;2.80;;
19280;SDS011;9774;52.034;5.342;2023-09-18T12:59:36;5.28;;;2.63;;
19280;SDS011;9774;52.034;5.342;2023-09-18T13:02:04;2.67;;;2.47;;
19280;SDS011;9774;52.034;5.342;2023-09-18T13:04:35;5.40;;;2.88;;
19280;SDS011;9774;52.034;5.342;2023-09-18T13:07:06;3.85;;;3.25;;
19280;SDS011;9774;52.034;5.342;2023-09-18T13:09:37;4.53;;;2.67;;
19280;SDS011;9774;52.034;5.342;2023-09-18T13:12:04;4.82;;;2.50;;
19280;SDS011;9774;52.034;5.342;2023-09-18T13:17:24;2.85;;;2.13;;
19280;SDS011;9774;52.034;5.342;2023-09-18T13:19:53;4.40;;;1.92;;
19280;SDS011;9774;52.034;5.342;2023-09-18T13:22:23;4.50;;;2.30;;
19280;SDS011;9774;52.034;5.342;2023-09-18T13:24:55;2.80;;;2.10;;
19280;SDS011;9774;52.034;5.342;2023-09-18T13:27:22;4.00;;;2.13;;
19280;SDS011;9774;52.034;5.342;2023-09-18T13:29:51;4.47;;;2.33;;
19280;SDS011;9774;52.034;5.342;2023-09-18T13:32:18;2.35;;;2.15;;
19280;SDS011;9774;52.034;5.342;2023-09-18T13:34:46;3.40;;;1.88;;
19280;SDS011;9774;52.034;5.342;2023-09-18T13:37:15;2.42;;;1.70;;
19280;SDS011;9774;52.034;5.342;2023-09-18T13:39:45;2.47;;;1.50;;
19280;SDS011;9774;52.034;5.342;2023-09-18T13:42:12;2.03;;;1.70;;
19280;SDS011;9774;52.034;5.342;2023-09-18T13:44:39;2.50;;;2.00;;
19280;SDS011;9774;52.034;5.342;2023-09-18T13:47:06;4.38;;;2.03;;
19280;SDS011;9774;52.034;5.342;2023-09-18T13:49:33;2.40;;;1.50;;
19280;SDS011;9774;52.034;5.342;2023-09-18T13:52:00;1.50;;;1.17;;
19280;SDS011;9774;52.034;5.342;2023-09-18T13:54:30;3.20;;;1.75;;
19280;SDS011;9774;52.034;5.342;2023-09-18T13:56:57;2.72;;;1.80;;
19280;SDS011;9774;52.034;5.342;2023-09-18T13:59:24;11.88;;;1.58;;
19280;SDS011;9774;52.034;5.342;2023-09-18T14:01:51;1.58;;;1.40;;
19280;SDS011;9774;52.034;5.342;2023-09-18T14:04:18;2.53;;;1.42;;
19280;SDS011;9774;52.034;5.342;2023-09-18T14:06:47;3.22;;;1.45;;
19280;SDS011;9774;52.034;5.342;2023-09-18T14:09:14;3.25;;;1.55;;
19280;SDS011;9774;52.034;5.342;2023-09-18T14:11:43;3.17;;;1.25;;
19280;SDS011;9774;52.034;5.342;2023-09-18T14:14:10;2.13;;;1.50;;
19280;SDS011;9774;52.034;5.342;2023-09-18T14:16:37;1.52;;;1.13;;
19280;SDS011;9774;52.034;5.342;2023-09-18T14:19:04;3.45;;;1.50;;
19280;SDS011;9774;52.034;5.342;2023-09-18T14:21:31;2.03;;;1.30;;
19280;SDS011;9774;52.034;5.342;2023-09-18T14:23:59;1.42;;;1.17;;
19280;SDS011;9774;52.034;5.342;2023-09-18T14:26:25;1.30;;;1.15;;
19280;SDS011;9774;52.034;5.342;2023-09-18T14:28:54;1.60;;;1.05;;
19280;SDS011;9774;52.034;5.342;2023-09-18T14:31:21;2.10;;;1.30;;
19280;SDS011;9774;52.034;5.342;2023-09-18T14:33:48;1.23;;;1.13;;
19280;SDS011;9774;52.034;5.342;2023-09-18T14:36:15;2.67;;;1.50;;
19280;SDS011;9774;52.034;5.342;2023-09-18T14:38:42;1.45;;;1.13;;
19280;SDS011;9774;52.034;5.342;2023-09-18T14:41:10;2.05;;;1.35;;
19280;SDS011;9774;52.034;5.342;2023-09-18T14:43:38;1.83;;;1.30;;
19280;SDS011;9774;52.034;5.342;2023-09-18T14:46:06;9.43;;;1.25;;
19280;SDS011;9774;52.034;5.342;2023-09-18T14:48:33;2.05;;;1.35;;
19280;SDS011;9774;52.034;5.342;2023-09-18T14:51:00;3.38;;;1.40;;
19280;SDS011;9774;52.034;5.342;2023-09-18T14:53:28;1.67;;;1.20;;
19280;SDS011;9774;52.034;5.342;2023-09-18T14:55:54;2.88;;;1.42;;
19280;SDS011;9774;52.034;5.342;2023-09-18T14:58:23;2.17;;;1.30;;
19280;SDS011;9774;52.034;5.342;2023-09-18T15:00:50;2.35;;;1.13;;
19280;SDS011;9774;52.034;5.342;2023-09-18T15:03:18;2.65;;;1.52;;
19280;SDS011;9774;52.034;5.342;2023-09-18T15:05:45;3.97;;;1.70;;
19280;SDS011;9774;52.034;5.342;2023-09-18T15:08:12;3.08;;;1.30;;
19280;SDS011;9774;52.034;5.342;2023-09-18T15:10:40;1.70;;;1.23;;
19280;SDS011;9774;52.034;5.342;2023-09-18T15:13:07;2.45;;;1.00;;